Terminal Aerodrome Forecast
Issued by NWS

Home | Current Version | Previous Version | Graphics & Text | Print | Product List | Glossary On
Versions: 1 2 3 4 5 6 7 8 9 10 11 12
000
FTUS45 KGGW 180500
TAFSDY
TAF
KSDY 180526Z 1806/1906 VRB06KT P6SM FEW250
     FM181500 20010KT P6SM SCT200
     FM181700 33014KT P6SM BKN200
     FM182000 33024G32KT P6SM BKN090
     FM190300 32014KT P6SM SCT200
      AMD LTD TO CLD VIS AND WIND=

USA.gov is the U.S. government's official web portal to all federal, state and local government web resources and services.